Lilac (350, 352) Station Data

Red Flag Warning: No
Fire Weather Zone: 250
SDGE Region: North East
Lat/Lon: 33.277/-117.069

Observations

Time Wind Speed/Gust Temp(F) RH Fuel Moist Fuel Temp(F) Dewpt(F) Tmax(F) Tmin(F) Accum Precip 10-min Precip SL Press(mb)
5/24 8:20am 292 2 G 7 56° 100% - - 56° 62.2° 52° - - -
5/24 8:10am 241 4 G 6 57° 100% - - 57° 62.2° 52° - - -
5/24 8:00am 78 3 G 8 58° 100% - - 58° 62.2° 52° - - -
5/24 7:50am 70 6 G 9 55° 100% - - 55° 62.2° 52° - - -
5/24 7:40am 93 3 G 8 54° 100% - - 54° 62.2° 52° - - -
5/24 7:30am 40 2 G 6 54° 100% - - 54° 62.2° 52° - - -
5/24 7:20am 146 1 G 3 54° 100% - - 54° 62.2° 52° - - -
5/24 7:10am 211 4 G 7 53° 100% - - 53° 62.2° 52° - - -
5/24 7:00am 59 3 G 6 53° 100% - - 53° 62.2° 52° - - -
5/24 6:50am 172 2 G 5 53° 100% - - 53° 62.2° 52° - - -
5/24 6:40am 250 4 G 5 52° 100% - - 52° 62.2° 52° - - -
5/24 6:30am 288 2 G 5 53° 100% - - 53° 62.2° 52.2° - - -
5/24 6:20am 272 3 G 4 54° 100% - - 54° 62.2° 52.6° - - -
5/24 6:10am 274 2 G 5 56° 92% - - 53° 62.2° 52.6° - - -
5/24 6:00am 228 1 G 3 58° 74% - - 49° 62.2° 52.6° - - -
5/24 5:50am 239 3 G 5 61° 64% - - 49° 62.2° 52.6° - - -
5/24 5:40am 102 3 G 5 60° 68% - - 49° 61.6° 52.6° - - -
5/24 5:30am 100 5 G 8 60° 74% - - 52° 61.6° 52.6° - - -
5/24 5:20am 106 5 G 6 58° 100% - - 58° 61.6° 52.6° - - -
5/24 5:10am 103 5 G 8 56° 100% - - 56° 61.6° 52.6° - - -
5/24 5:00am 131 4 G 6 54° 100% - - 54° 61.6° 52.6° - - -
5/24 4:50am 101 3 G 5 55° 100% - - 55° 61.6° 52.6° - - -
5/24 4:40am 72 5 G 6 54° 100% - - 54° 61.6° 52.6° - - -
5/24 4:30am 58 2 G 5 53° 100% - - 53° 61.6° 52.6° - - -
5/24 4:20am 264 1 G 3 53° 100% - - 53° 61.6° 52.7° - - -
5/24 4:10am 313 2 G 3 54° 100% - - 54° 61.6° 53.5° - - -
5/24 4:00am 337 3 G 3 56° 100% - - 56° 61.6° 55.1° - - -
5/24 3:50am 263 2 G 2 58° 100% - - 58° 61.6° 57° - - -
5/24 3:40am 175 0 G 1 59° 100% - - 59° 61.6° 57.8° - - -
5/24 3:30am 246 1 G 2 59° 100% - - 59° 61.6° 57.8° - - -
5/24 3:20am 261 1 G 2 61° 93% - - 59° 61.6° 57.8° - - -
5/24 3:10am 51 0 G 1 61° 100% - - 61° 61.6° 57.8° - - -
5/24 3:00am 43 1 G 2 60° 100% - - 60° 61.6° 57.8° - - -
5/24 2:50am 56 1 G 2 60° 100% - - 60° 61.6° 57.8° - - -
5/24 2:40am 142 2 G 2 59° 100% - - 59° 61.6° 57.8° - - -
5/24 2:30am 71 1 G 2 59° 100% - - 59° 61.6° 57.8° - - -
5/24 2:20am 30 2 G 2 59° 100% - - 59° 61.6° 57.8° - - -
5/24 2:10am 36 2 G 3 58° 100% - - 58° 61.6° 57.8° - - -
5/24 2:00am 25 2 G 3 58° 100% - - 58° 61.6° 58° - - -
5/24 1:50am 26 1 G 2 59° 100% - - 59° 61.6° 58° - - -
5/24 1:40am 317 1 G 2 58° 100% - - 59° 61.6° 58° - - -
5/24 1:30am 157 1 G 3 60° 100% - - 60° 61.6° 58.7° - - -
5/24 1:20am 207 1 G 3 60° 100% - - 60° 61.6° 58.7° - - -
5/24 1:10am 144 2 G 3 60° 100% - - 60° 61.6° 58.7° - - -
5/24 1:00am 192 0 G 2 61° 100% - - 61° 61.6° 58.7° - - -
5/24 12:50am 98 1 G 2 61° 100% - - 61° 61.6° 58.7° - - -
5/24 12:40am 96 2 G 3 60° 100% - - 60° 60.9° 58.7° - - -
5/24 12:30am 146 1 G 2 60° 100% - - 60° 60.1° 58.7° - - -
5/24 12:20am 226 1 G 2 59° 100% - - 59° 60.1° 58.7° - - -
5/24 12:10am 207 1 G 2 60° 100% - - 60° 60.1° 59.5° - - -
5/24 12:00am 358 0 G 1 60° 100% - - 60° 84.4° 57.4° - - -
5/23 11:50pm 99 1 G 2 60° 100% - - 60° 84.4° 57.4° - - -
5/23 11:40pm 152 3 G 3 60° 100% - - 60° 84.4° 57.4° - - -
5/23 11:30pm 132 1 G 3 60° 100% - - 60° 84.4° 57.4° - - -
5/23 11:20pm 142 2 G 4 60° 100% - - 60° 84.4° 57.4° - - -
5/23 11:10pm 106 1 G 2 60° 100% - - 60° 84.4° 57.4° - - -
5/23 11:00pm 320 1 G 2 60° 100% - - 60° 84.4° 57.4° - - -
5/23 10:50pm 344 2 G 2 60° 100% - - 60° 84.4° 57.4° - - -
5/23 10:40pm 347 1 G 2 60° 95% - - 59° 84.4° 57.4° - - -
5/23 10:30pm 353 2 G 4 61° 78% - - 54° 84.4° 57.4° - - -
5/23 10:20pm 357 2 G 4 61° 77% - - 54° 84.4° 57.4° - - -
5/23 10:10pm 332 2 G 3 62° 76% - - 54° 84.4° 57.4° - - -
5/23 10:00pm 302 1 G 2 62° 76% - - 54° 84.4° 57.4° - - -
5/23 9:50pm 312 2 G 3 62° 75% - - 54° 84.4° 57.4° - - -
5/23 9:40pm 330 2 G 3 63° 72% - - 54° 84.4° 57.4° - - -
5/23 9:30pm 314 2 G 3 65° 66% - - 53° 84.4° 57.4° - - -
5/23 9:20pm 349 2 G 3 67° 60% - - 53° 84.4° 57.4° - - -
5/23 9:10pm 83 3 G 5 69° 56% - - 53° 84.4° 57.4° - - -
5/23 9:00pm 156 5 G 6 69° 56% - - 53° 84.4° 57.4° - - -
5/23 8:50pm 158 4 G 5 69° 55% - - 53° 84.4° 57.4° - - -
5/23 8:40pm 138 4 G 7 70° 54% - - 53° 84.4° 57.4° - - -
5/23 8:30pm 129 6 G 7 70° 55% - - 53° 84.4° 57.4° - - -
5/23 8:20pm 115 5 G 6 70° 56% - - 53° 84.4° 57.4° - - -
5/23 8:10pm 83 3 G 5 69° 57% - - 53° 84.4° 57.4° - - -
5/23 8:00pm 109 4 G 5 69° 58% - - 53° 84.4° 57.4° - - -
5/23 7:50pm 93 3 G 5 68° 61% - - 54° 84.4° 57.4° - - -
5/23 7:40pm 12 2 G 3 68° 61% - - 54° 84.4° 57.4° - - -
5/23 7:30pm 294 2 G 3 68° 60% - - 54° 84.4° 57.4° - - -
5/23 7:20pm 332 3 G 4 69° 58% - - 54° 84.4° 57.4° - - -
5/23 7:10pm 336 3 G 4 69° 57% - - 53° 84.4° 57.4° - - -
5/23 7:00pm 319 3 G 5 70° 55% - - 53° 84.4° 57.4° - - -
5/23 6:50pm 288 4 G 6 70° 55% - - 53° 84.4° 57.4° - - -
5/23 6:40pm 289 4 G 6 70° 54% - - 53° 84.4° 57.4° - - -
5/23 6:30pm 286 5 G 7 71° 54% - - 53° 84.4° 57.4° - - -
5/23 6:20pm 304 6 G 9 71° 53% - - 53° 84.4° 57.4° - - -
5/23 6:10pm 286 7 G 9 72° 51% - - 53° 84.4° 57.4° - - -
5/23 6:00pm 286 6 G 8 73° 49% - - 52° 84.4° 57.4° - - -
5/23 5:50pm 279 7 G 10 74° 46% - - 52° 84.4° 57.4° - - -
5/23 5:40pm 287 7 G 10 76° 43% - - 52° 84.4° 57.4° - - -
5/23 5:30pm 282 7 G 10 78° 40% - - 52° 84.4° 57.4° - - -
5/23 5:20pm 287 7 G 12 79° 37% - - 51° 84.4° 57.4° - - -
5/23 5:10pm 279 7 G 11 81° 31% - - 48° 84.4° 57.4° - - -
5/23 5:00pm 275 5 G 11 82° 28% - - 46° 84.4° 57.4° - - -
5/23 4:50pm 240 5 G 9 82° 26% - - 44° 84.4° 57.4° - - -
5/23 4:40pm 278 5 G 10 83° 25% - - 43° 84.4° 57.4° - - -
5/23 4:30pm 232 5 G 9 82° 24% - - 42° 84.4° 57.4° - - -
5/23 4:20pm 235 5 G 9 82° 24% - - 42° 84.4° 57.4° - - -
5/23 4:10pm 254 4 G 7 82° 24% - - 42° 84.4° 57.4° - - -
5/23 4:00pm 265 5 G 8 82° 25% - - 43° 84.4° 57.4° - - -
5/23 3:50pm 247 4 G 10 81° 27% - - 44° 84.4° 57.4° - - -
5/23 3:40pm 249 5 G 9 80° 29% - - 45° 84.4° 57.4° - - -
5/23 3:30pm 261 6 G 10 80° 31% - - 46° 84.4° 57.4° - - -
5/23 3:20pm 264 5 G 8 79° 34% - - 48° 84.4° 57.4° - - -
5/23 3:10pm 276 6 G 10 78° 37% - - 50° 84.4° 57.4° - - -
5/23 3:00pm 286 6 G 10 78° 40% - - 51° 84.4° 57.4° - - -
5/23 2:50pm 288 6 G 10 76° 43% - - 52° 84.4° 57.4° - - -
5/23 2:40pm 282 6 G 10 76° 45% - - 53° 84.4° 57.4° - - -
5/23 2:30pm 288 6 G 10 75° 46% - - 53° 84.4° 57.4° - - -
5/23 2:20pm 283 7 G 11 75° 48% - - 54° 84.4° 57.4° - - -
5/23 2:10pm 299 8 G 13 74° 48% - - 54° 84.4° 57.4° - - -
5/23 2:00pm 285 7 G 14 74° 49% - - 54° 84.4° 57.4° - - -
5/23 1:50pm 286 6 G 10 74° 50% - - 54° 84.4° 57.4° - - -
5/23 1:40pm 281 7 G 11 73° 51% - - 54° 84.4° 57.4° - - -
5/23 1:30pm 296 7 G 11 73° 51% - - 54° 84.4° 57.4° - - -
5/23 1:20pm 276 6 G 10 73° 52% - - 54° 84.4° 57.4° - - -
5/23 1:10pm 290 5 G 10 71° 54% - - 54° 84.4° 57.4° - - -
5/23 1:00pm 286 8 G 13 71° 55% - - 54° 84.4° 57.4° - - -
5/23 12:50pm 286 9 G 14 71° 55% - - 54° 84.4° 57.4° - - -
5/23 12:40pm 290 9 G 13 71° 55% - - 54° 84.4° 57.4° - - -
5/23 12:30pm 290 9 G 14 71° 56% - - 54° 84.4° 57.4° - - -
5/23 12:20pm 281 10 G 14 70° 55% - - 54° 84.4° 57.4° - - -
5/23 12:10pm 285 10 G 16 73° 51% - - 54° 84.4° 57.4° - - -
5/23 12:00pm 286 9 G 13 75° 47% - - 53° 84.4° 57.4° - - -
5/23 11:50am 273 9 G 13 75° 47% - - 54° 84.4° 57.4° - - -
5/23 11:40am 277 10 G 15 79° 40% - - 52° 84.4° 57.4° - - -
5/23 11:30am 264 10 G 14 82° 33% - - 50° 84.4° 57.4° - - -
5/23 11:20am 271 7 G 10 83° 29% - - 48° 84.4° 57.4° - - -
5/23 11:10am 253 7 G 9 84° 27% - - 46° 84.4° 57.4° - - -
5/23 11:00am 264 5 G 7 84° 23% - - 43° 84.4° 57.4° - - -
5/23 10:50am 260 4 G 7 84° 23% - - 42° 84.2° 57.4° - - -
5/23 10:40am 290 3 G 4 84° 23% - - 42° 84.2° 57.4° - - -
5/23 10:30am 309 2 G 5 83° 25% - - 44° 83.7° 57.4° - - -
5/23 10:20am 13 3 G 5 83° 27% - - 45° 83.4° 57.4° - - -
5/23 10:10am 338 3 G 5 82° 29% - - 47° 82.7° 57.4° - - -
5/23 10:00am 344 1 G 4 82° 29% - - 46° 82.5° 57.4° - - -
5/23 9:50am 122 2 G 3 81° 26% - - 43° 82° 57.4° - - -
5/23 9:40am 139 2 G 3 79° 29% - - 44° 79.9° 57.4° - - -
5/23 9:30am 259 3 G 5 76° 40% - - 50° 77.2° 57.4° - - -
5/23 9:20am 275 2 G 5 74° 43% - - 50° 75.1° 57.4° - - -
5/23 9:10am 277 3 G 4 73° 46% - - 51° 73.6° 57.4° - - -
5/23 9:00am 268 2 G 5 73° 47% - - 51° 73.4° 57.4° - - -
5/23 8:50am 299 2 G 4 72° 48% - - 51° 72.8° 57.4° - - -
5/23 8:40am 278 1 G 3 71° 50% - - 51° 71.5° 57.4° - - -
5/23 8:30am 271 1 G 3 70° 50% - - 50° 70.4° 57.4° - - -
5/23 8:20am 254 1 G 2 68° 51% - - 50° 69.1° 57.4° - - -
5/23 8:10am 266 2 G 3 68° 53% - - 50° 69.1° 57.4° - - -
5/23 8:00am 345 1 G 3 68° 50% - - 49° 69.1° 57.4° - - -
5/23 7:50am 1 2 G 4 66° 54% - - 49° 69.1° 57.4° - - -
5/23 7:40am 250 2 G 3 65° 55% - - 49° 69.1° 57.4° - - -
5/23 7:30am 252 2 G 2 65° 53% - - 48° 69.1° 57.4° - - -
5/23 7:20am 198 1 G 3 65° 52% - - 47° 69.1° 57.4° - - -
5/23 7:10am 244 1 G 2 64° 52% - - 47° 69.1° 57.4° - - -
5/23 7:00am 317 1 G 2 64° 53% - - 47° 69.1° 57.4° - - -
5/23 6:50am 327 1 G 3 68° 43% - - 44° 69.1° 57.4° - - -
5/23 6:40am 68 2 G 3 67° 41% - - 43° 68.3° 57.4° - - -
5/23 6:30am 61 2 G 3 65° 45% - - 44° 68.3° 57.4° - - -
5/23 6:20am 6 2 G 3 64° 51% - - 45° 68.3° 57.4° - - -
5/23 6:10am 22 2 G 3 63° 52% - - 45° 68.3° 57.4° - - -
5/23 6:00am 17 3 G 4 64° 50% - - 45° 68.3° 57.4° - - -